createdAt,value
2023-01-26T00:01:38.598Z,19.25
2023-01-26T00:04:12.293Z,20.35
2023-01-26T00:06:45.046Z,21.17
2023-01-26T00:09:18.121Z,21.05
2023-01-26T00:11:50.046Z,22.50
2023-01-26T00:14:22.769Z,20.92
2023-01-26T00:16:54.644Z,21.35
2023-01-26T00:19:27.724Z,21.27
2023-01-26T00:22:00.037Z,21.60
2023-01-26T00:24:32.357Z,20.95
2023-01-26T00:27:04.598Z,20.13
2023-01-26T00:29:37.373Z,21.23
2023-01-26T00:32:09.416Z,20.80
2023-01-26T00:34:42.178Z,21.45
2023-01-26T00:37:16.510Z,22.10
2023-01-26T00:39:49.231Z,20.00
2023-01-26T00:42:24.967Z,20.60
2023-01-26T00:44:56.838Z,19.43
2023-01-26T00:47:29.576Z,18.80
2023-01-26T00:50:02.966Z,21.67
2023-01-26T00:52:35.325Z,19.67
2023-01-26T00:55:07.926Z,19.92
2023-01-26T00:57:41.081Z,17.83
2023-01-26T01:00:16.824Z,17.88
2023-01-26T01:02:50.011Z,19.70
2023-01-26T01:05:25.872Z,18.13
2023-01-26T01:07:58.817Z,18.73
2023-01-26T01:10:30.818Z,18.00
2023-01-26T01:13:05.685Z,18.27
2023-01-26T01:15:39.097Z,18.75
2023-01-26T01:18:11.946Z,18.17
2023-01-26T01:20:43.862Z,19.00
2023-01-26T01:23:16.604Z,17.20
2023-01-26T01:25:57.986Z,17.38
2023-01-26T01:28:31.385Z,18.95
2023-01-26T01:31:15.949Z,18.55
2023-01-26T01:33:47.988Z,16.65
2023-01-26T01:36:20.748Z,18.30
2023-01-26T01:38:53.458Z,19.10
2023-01-26T01:41:25.889Z,19.15
2023-01-26T01:44:21.436Z,18.27
2023-01-26T01:47:05.664Z,18.55
2023-01-26T01:49:46.761Z,18.67
2023-01-26T01:52:28.269Z,17.48
2023-01-26T01:55:10.863Z,18.10
2023-01-26T01:57:54.496Z,17.48
2023-01-26T02:00:27.307Z,18.08
2023-01-26T02:03:11.991Z,18.23
2023-01-26T02:06:17.310Z,18.95
2023-01-26T02:08:55.913Z,17.80
2023-01-26T02:11:38.749Z,17.08
2023-01-26T02:14:14.887Z,17.15
2023-01-26T02:16:47.215Z,17.40
2023-01-26T02:19:30.530Z,18.20
2023-01-26T02:22:17.762Z,18.17
2023-01-26T02:24:51.378Z,19.40
2023-01-26T02:27:23.845Z,18.00
2023-01-26T02:29:57.651Z,17.00
2023-01-26T02:32:29.706Z,17.58
2023-01-26T02:35:02.982Z,19.92
2023-01-26T02:37:35.091Z,18.33
2023-01-26T02:40:51.816Z,19.45
2023-01-26T02:43:26.650Z,18.67
2023-01-26T02:45:59.578Z,18.80
2023-01-26T02:48:51.826Z,18.63
2023-01-26T02:51:24.651Z,17.05
2023-01-26T02:53:57.437Z,16.52
2023-01-26T02:56:31.006Z,17.00
2023-01-26T02:59:03.038Z,18.92
2023-01-26T03:01:36.199Z,19.15
2023-01-26T03:04:08.376Z,19.23
2023-01-26T03:06:41.187Z,19.40
2023-01-26T03:09:13.226Z,18.20
2023-01-26T03:11:46.697Z,18.45
2023-01-26T03:14:18.866Z,19.15
2023-01-26T03:16:51.670Z,17.95
2023-01-26T03:19:42.409Z,19.92
2023-01-26T03:22:33.638Z,20.50
2023-01-26T03:25:25.314Z,18.50
2023-01-26T03:27:59.416Z,20.40
2023-01-26T03:30:33.407Z,18.60
2023-01-26T03:33:05.936Z,18.38
2023-01-26T03:35:39.167Z,19.73
2023-01-26T03:38:11.206Z,18.58
2023-01-26T03:41:08.480Z,19.17
2023-01-26T03:43:59.237Z,20.45
2023-01-26T03:46:50.629Z,18.25
2023-01-26T03:49:41.390Z,19.17
2023-01-26T03:52:32.606Z,18.65
2023-01-26T03:55:26.205Z,17.98
2023-01-26T03:57:58.221Z,18.05
2023-01-26T04:00:31.072Z,19.23
2023-01-26T04:03:21.867Z,17.63
2023-01-26T04:06:18.195Z,17.48
2023-01-26T04:08:55.014Z,18.60
2023-01-26T04:11:27.100Z,18.77
2023-01-26T04:14:18.806Z,17.70
2023-01-26T04:17:09.599Z,18.30
2023-01-26T04:20:00.544Z,17.20
2023-01-26T04:22:40.686Z,17.63
2023-01-26T04:25:16.499Z,17.30
2023-01-26T04:27:48.439Z,17.15
2023-01-26T04:30:21.823Z,18.73
2023-01-26T04:32:54.591Z,15.50
2023-01-26T04:35:26.521Z,17.25
2023-01-26T04:38:00.047Z,16.38
2023-01-26T04:40:33.304Z,17.70
2023-01-26T04:43:06.098Z,16.33
2023-01-26T04:45:38.593Z,16.27
2023-01-26T04:48:11.325Z,17.40
2023-01-26T04:50:44.268Z,14.38
2023-01-26T04:53:16.573Z,16.35
2023-01-26T04:55:49.422Z,15.67
2023-01-26T04:58:21.651Z,15.48
2023-01-26T05:00:57.578Z,16.08
2023-01-26T05:03:30.374Z,16.00
2023-01-26T05:06:03.209Z,15.80
2023-01-26T05:08:37.773Z,14.63
2023-01-26T05:11:10.881Z,15.90
2023-01-26T05:14:12.556Z,16.52
2023-01-26T05:17:03.250Z,16.50
2023-01-26T05:20:14.845Z,14.57
2023-01-26T05:23:04.422Z,14.57
2023-01-26T05:25:37.582Z,14.95
2023-01-26T05:28:14.733Z,15.70
2023-01-26T05:30:48.067Z,14.55
2023-01-26T05:33:22.502Z,14.80
2023-01-26T05:35:56.599Z,15.07
2023-01-26T05:38:28.581Z,15.95
2023-01-26T05:41:03.027Z,15.68
2023-01-26T05:43:42.515Z,15.20
2023-01-26T05:46:25.074Z,15.27
2023-01-26T05:48:57.059Z,13.87
2023-01-26T05:51:32.809Z,14.57
2023-01-26T05:54:05.088Z,14.48
2023-01-26T05:56:37.976Z,14.50
2023-01-26T05:59:13.391Z,15.80
2023-01-26T06:01:48.097Z,14.07
2023-01-26T06:04:21.912Z,14.15
2023-01-26T06:07:01.339Z,14.40
2023-01-26T06:09:40.114Z,13.60
2023-01-26T06:12:21.866Z,13.82
2023-01-26T06:14:57.321Z,14.23
2023-01-26T06:17:38.477Z,13.40
2023-01-26T06:20:15.141Z,14.88
2023-01-26T06:23:01.517Z,14.25
2023-01-26T06:25:37.348Z,14.40
2023-01-26T06:28:10.651Z,15.83
2023-01-26T06:30:43.997Z,15.15
2023-01-26T06:33:17.794Z,14.63
2023-01-26T06:35:51.059Z,14.15
2023-01-26T06:38:23.554Z,14.57
2023-01-26T06:40:59.838Z,14.60
2023-01-26T06:43:36.821Z,14.82
2023-01-26T06:46:09.562Z,15.35
2023-01-26T06:48:42.954Z,15.65
2023-01-26T06:51:18.717Z,14.43
2023-01-26T06:53:58.649Z,14.23
2023-01-26T06:56:39.871Z,13.48
2023-01-26T06:59:47.390Z,15.25
2023-01-26T07:02:29.553Z,14.65
2023-01-26T07:05:02.969Z,14.68
2023-01-26T07:07:35.518Z,15.27
2023-01-26T07:10:08.933Z,15.60
2023-01-26T07:12:44.751Z,14.48
2023-01-26T07:15:17.226Z,15.93
2023-01-26T07:17:49.891Z,15.90
2023-01-26T07:20:23.115Z,14.37
2023-01-26T07:22:55.053Z,16.67
2023-01-26T07:25:28.415Z,15.73
2023-01-26T07:28:00.955Z,16.20
2023-01-26T07:30:33.156Z,16.52
2023-01-26T07:33:06.302Z,15.63
2023-01-26T07:35:38.242Z,15.73
2023-01-26T07:38:11.088Z,16.60
2023-01-26T07:40:43.130Z,17.27
2023-01-26T07:43:16.780Z,16.88
2023-01-26T07:45:54.557Z,16.10
2023-01-26T07:48:30.197Z,16.92
2023-01-26T07:51:05.088Z,17.98
2023-01-26T07:53:39.771Z,18.48
2023-01-26T07:56:19.898Z,16.58
2023-01-26T07:58:54.575Z,16.23
2023-01-26T08:01:26.941Z,16.85
2023-01-26T08:03:58.982Z,17.98
2023-01-26T08:06:32.177Z,15.13
2023-01-26T08:09:04.543Z,17.45
2023-01-26T08:11:37.327Z,17.43
2023-01-26T08:14:09.226Z,17.38
2023-01-26T08:16:42.127Z,16.98
2023-01-26T08:19:14.139Z,18.40
2023-01-26T08:21:47.110Z,17.05
2023-01-26T08:24:20.159Z,16.40
2023-01-26T08:26:53.025Z,17.33
2023-01-26T08:29:25.390Z,17.25
2023-01-26T08:32:00.312Z,16.83
2023-01-26T08:34:33.128Z,17.20
2023-01-26T08:37:05.107Z,15.33
2023-01-26T08:39:37.727Z,18.35
2023-01-26T08:42:10.072Z,17.88
2023-01-26T08:44:42.761Z,17.95
2023-01-26T08:47:15.692Z,18.08
2023-01-26T08:49:48.036Z,17.67
2023-01-26T08:52:22.135Z,15.70
2023-01-26T08:54:54.054Z,16.75
2023-01-26T08:57:27.758Z,15.90
2023-01-26T09:00:00.799Z,17.15
2023-01-26T09:02:36.344Z,17.43
2023-01-26T09:05:09.155Z,16.77
2023-01-26T09:07:42.284Z,18.48
2023-01-26T09:10:15.878Z,18.33
2023-01-26T09:12:47.808Z,18.75
2023-01-26T09:15:20.719Z,17.43
2023-01-26T09:17:53.942Z,18.15
2023-01-26T09:20:28.001Z,17.90
2023-01-26T09:22:59.891Z,18.20
2023-01-26T09:25:33.177Z,18.98
2023-01-26T09:28:06.599Z,19.87
2023-01-26T09:30:39.578Z,18.13
2023-01-26T09:33:11.962Z,18.02
2023-01-26T09:35:44.908Z,17.55
2023-01-26T09:38:18.340Z,18.42
2023-01-26T09:41:08.097Z,17.83
2023-01-26T09:43:51.296Z,16.63
2023-01-26T09:46:47.964Z,16.98
2023-01-26T09:50:03.459Z,16.08
2023-01-26T09:52:48.493Z,19.38
2023-01-26T09:55:22.389Z,17.33
2023-01-26T09:58:07.072Z,17.45
2023-01-26T10:00:49.377Z,19.35
2023-01-26T10:04:07.218Z,16.83
2023-01-26T10:06:39.943Z,18.92
2023-01-26T10:09:28.249Z,18.70
2023-01-26T10:12:23.755Z,18.35
2023-01-26T10:15:11.363Z,19.83
2023-01-26T10:17:46.145Z,17.30
2023-01-26T10:20:36.936Z,16.30
2023-01-26T10:23:20.600Z,17.10
2023-01-26T10:25:58.813Z,17.33
2023-01-26T10:28:37.354Z,18.20
2023-01-26T10:31:31.488Z,15.32
2023-01-26T10:34:14.942Z,16.85
2023-01-26T10:36:48.587Z,15.97
2023-01-26T10:39:20.605Z,15.68
2023-01-26T10:42:03.509Z,15.98
2023-01-26T10:44:39.224Z,14.73
2023-01-26T10:47:18.153Z,14.80
2023-01-26T10:49:50.052Z,16.13
2023-01-26T10:52:28.283Z,13.75
2023-01-26T10:55:20.490Z,15.45
2023-01-26T10:57:53.542Z,14.05
2023-01-26T11:00:33.633Z,15.88
2023-01-26T11:03:15.173Z,14.60
2023-01-26T11:06:07.437Z,12.48
2023-01-26T11:08:44.910Z,15.27
2023-01-26T11:11:27.884Z,15.23
2023-01-26T11:14:19.568Z,14.80
2023-01-26T11:17:01.485Z,15.40
2023-01-26T11:20:07.587Z,13.55
2023-01-26T11:23:05.595Z,14.77
2023-01-26T11:25:54.690Z,14.02
2023-01-26T11:28:54.050Z,12.13
2023-01-26T11:32:17.201Z,14.13
2023-01-26T11:35:23.070Z,14.00
2023-01-26T11:38:06.588Z,14.93
2023-01-26T11:41:16.777Z,15.20
2023-01-26T11:44:20.411Z,13.18
2023-01-26T11:47:35.220Z,14.60
2023-01-26T11:50:26.119Z,13.88
2023-01-26T11:53:23.569Z,14.15
2023-01-26T11:56:19.810Z,14.48
2023-01-26T11:59:07.146Z,15.02
2023-01-26T12:01:50.008Z,13.30
2023-01-26T12:04:24.214Z,14.75
2023-01-26T12:07:18.026Z,13.68
2023-01-26T12:09:53.258Z,14.73
2023-01-26T12:12:58.388Z,13.23
2023-01-26T12:15:37.752Z,13.13
2023-01-26T12:18:09.909Z,13.88
2023-01-26T12:20:56.251Z,12.32
2023-01-26T12:23:52.071Z,12.50
2023-01-26T12:26:29.209Z,14.32
2023-01-26T12:29:21.970Z,14.03
2023-01-26T12:32:12.561Z,12.85
2023-01-26T12:34:44.863Z,13.02
2023-01-26T12:37:48.504Z,11.27
2023-01-26T12:40:37.120Z,14.05
2023-01-26T12:43:18.992Z,12.37
2023-01-26T12:45:55.017Z,13.98
2023-01-26T12:48:47.778Z,12.32
2023-01-26T12:51:47.450Z,13.30
2023-01-26T12:54:38.490Z,14.35
2023-01-26T12:57:18.433Z,11.73
2023-01-26T12:59:52.291Z,13.18
2023-01-26T13:02:33.990Z,13.63
2023-01-26T13:05:08.322Z,12.57
2023-01-26T13:07:40.839Z,12.52
2023-01-26T13:10:19.699Z,12.77
2023-01-26T13:12:57.388Z,13.40
2023-01-26T13:15:32.551Z,13.13
2023-01-26T13:18:05.397Z,11.88
2023-01-26T13:20:41.277Z,12.63
2023-01-26T13:23:43.583Z,14.23
2023-01-26T13:26:18.173Z,13.07
2023-01-26T13:28:51.697Z,13.75
2023-01-26T13:31:34.089Z,12.80
2023-01-26T13:34:09.715Z,13.63
2023-01-26T13:36:44.451Z,12.53
2023-01-26T13:39:37.263Z,12.27
2023-01-26T13:42:35.872Z,13.20
2023-01-26T13:45:27.444Z,10.30
2023-01-26T13:48:03.220Z,13.10
2023-01-26T13:50:39.359Z,13.20
2023-01-26T13:53:43.486Z,18.42
2023-01-26T13:56:38.244Z,13.63
2023-01-26T13:59:13.704Z,12.85
2023-01-26T14:01:53.101Z,13.02
2023-01-26T14:04:29.205Z,12.83
2023-01-26T14:07:05.142Z,13.88
2023-01-26T14:09:51.030Z,13.07
2023-01-26T14:12:46.214Z,11.13
2023-01-26T14:15:29.582Z,12.10
2023-01-26T14:18:08.994Z,12.63
2023-01-26T14:20:41.853Z,11.20
2023-01-26T14:23:19.030Z,11.73
2023-01-26T14:26:02.835Z,11.20
2023-01-26T14:28:43.253Z,12.73
2023-01-26T14:31:23.605Z,12.50
2023-01-26T14:33:59.660Z,12.18
2023-01-26T14:36:34.398Z,13.00
2023-01-26T14:39:19.206Z,13.00
2023-01-26T14:41:52.091Z,14.88
2023-01-26T14:44:24.457Z,14.03
2023-01-26T14:46:59.940Z,12.45
2023-01-26T14:49:43.300Z,12.98
2023-01-26T14:52:39.725Z,13.45
2023-01-26T14:55:31.811Z,12.70
2023-01-26T14:58:15.325Z,11.83
2023-01-26T15:00:50.161Z,12.40
2023-01-26T15:03:39.186Z,13.48
2023-01-26T15:06:15.255Z,13.40
2023-01-26T15:08:59.713Z,14.57
2023-01-26T15:11:58.935Z,13.70
2023-01-26T15:14:39.302Z,14.77
2023-01-26T15:17:41.830Z,13.88
2023-01-26T15:20:23.670Z,14.90
2023-01-26T15:22:55.676Z,14.85
2023-01-26T15:25:29.977Z,15.50
2023-01-26T15:28:01.995Z,14.98
2023-01-26T15:30:38.129Z,15.65
2023-01-26T15:33:52.995Z,14.23
2023-01-26T15:36:50.253Z,13.82
2023-01-26T15:39:23.558Z,14.10
2023-01-26T15:42:13.302Z,13.55
2023-01-26T15:44:46.095Z,11.95
2023-01-26T15:47:17.999Z,12.65
2023-01-26T15:49:50.958Z,14.05
2023-01-26T15:52:30.695Z,13.40
2023-01-26T15:55:30.164Z,13.90
2023-01-26T15:58:02.915Z,12.70
2023-01-26T16:00:35.765Z,12.90
2023-01-26T16:03:17.554Z,13.02
2023-01-26T16:05:50.549Z,13.80
2023-01-26T16:08:22.475Z,11.80
2023-01-26T16:10:56.850Z,13.88
2023-01-26T16:13:29.277Z,14.35
2023-01-26T16:16:02.292Z,12.18
2023-01-26T16:18:34.987Z,13.10
2023-01-26T16:21:35.681Z,12.32
2023-01-26T16:24:11.196Z,12.80
2023-01-26T16:26:43.604Z,13.10
2023-01-26T16:29:15.923Z,12.85
2023-01-26T16:31:47.975Z,13.40
2023-01-26T16:34:20.783Z,13.15
2023-01-26T16:36:52.734Z,12.60
2023-01-26T16:39:25.508Z,12.63
2023-01-26T16:41:57.927Z,13.77
2023-01-26T16:44:31.823Z,13.67
2023-01-26T16:47:05.622Z,13.63
2023-01-26T16:49:38.493Z,12.77
2023-01-26T16:52:10.850Z,12.02
2023-01-26T16:54:46.020Z,12.88
2023-01-26T16:57:17.903Z,12.07
2023-01-26T16:59:51.839Z,11.98
2023-01-26T17:02:28.260Z,13.55
2023-01-26T17:05:01.831Z,13.13
2023-01-26T17:07:33.769Z,13.38
2023-01-26T17:10:07.115Z,12.80
2023-01-26T17:12:39.096Z,14.43
2023-01-26T17:15:13.417Z,13.90
2023-01-26T17:17:49.541Z,13.88
2023-01-26T17:20:21.600Z,13.88
2023-01-26T17:22:54.482Z,13.97
2023-01-26T17:25:27.401Z,15.48
2023-01-26T17:27:59.763Z,13.85
2023-01-26T17:30:35.011Z,14.05
2023-01-26T17:33:06.967Z,14.02
2023-01-26T17:35:39.679Z,14.20
2023-01-26T17:38:11.606Z,14.50
2023-01-26T17:40:44.504Z,13.93
2023-01-26T17:43:16.408Z,13.40
2023-01-26T17:45:49.547Z,14.38
2023-01-26T17:48:21.457Z,14.30
2023-01-26T17:50:56.233Z,14.70
2023-01-26T17:53:29.061Z,14.77
2023-01-26T17:56:02.206Z,12.82
2023-01-26T17:58:34.470Z,15.43
2023-01-26T18:01:09.757Z,14.43
2023-01-26T18:03:43.354Z,14.48
2023-01-26T18:06:15.563Z,14.57
2023-01-26T18:08:49.353Z,15.38
2023-01-26T18:11:22.145Z,14.23
2023-01-26T18:13:56.008Z,14.83
2023-01-26T18:16:28.334Z,13.68
2023-01-26T18:19:01.988Z,13.18
2023-01-26T18:21:34.814Z,13.25
2023-01-26T18:24:08.157Z,14.07
2023-01-26T18:26:40.513Z,14.37
2023-01-26T18:29:31.076Z,12.90
2023-01-26T18:32:03.956Z,15.82
2023-01-26T18:34:36.351Z,14.65
2023-01-26T18:37:09.626Z,14.48
2023-01-26T18:39:42.571Z,13.90
2023-01-26T18:42:14.483Z,14.57
2023-01-26T18:44:48.568Z,14.85
2023-01-26T18:47:23.461Z,15.02
2023-01-26T18:49:56.451Z,15.00
2023-01-26T18:52:30.961Z,14.40
2023-01-26T18:55:03.750Z,15.40
2023-01-26T18:57:37.261Z,15.10
2023-01-26T19:00:11.121Z,16.27
2023-01-26T19:02:43.442Z,16.92
2023-01-26T19:05:15.491Z,15.97
2023-01-26T19:07:48.286Z,16.55
2023-01-26T19:10:20.469Z,15.88
2023-01-26T19:12:53.512Z,16.00
2023-01-26T19:15:26.083Z,16.35
2023-01-26T19:17:59.475Z,15.63
2023-01-26T19:20:32.139Z,16.02
2023-01-26T19:23:05.174Z,15.95
2023-01-26T19:25:37.544Z,16.10
2023-01-26T19:28:10.550Z,15.75
2023-01-26T19:30:43.950Z,15.83
2023-01-26T19:33:24.965Z,16.25
2023-01-26T19:35:58.369Z,17.05
2023-01-26T19:38:31.049Z,16.00
2023-01-26T19:41:04.042Z,15.95
2023-01-26T19:43:36.735Z,15.47
2023-01-26T19:46:11.594Z,14.82
2023-01-26T19:48:44.952Z,13.57
2023-01-26T19:51:20.825Z,13.90
2023-01-26T19:54:00.395Z,14.43
2023-01-26T19:56:37.158Z,13.10
2023-01-26T19:59:13.106Z,14.43
2023-01-26T20:01:45.052Z,15.15
2023-01-26T20:04:17.815Z,14.52
2023-01-26T20:06:50.815Z,14.02
2023-01-26T20:09:23.565Z,14.20
2023-01-26T20:11:55.455Z,14.40
2023-01-26T20:14:28.400Z,13.55
2023-01-26T20:17:00.841Z,13.13
2023-01-26T20:19:34.818Z,13.73
2023-01-26T20:22:09.235Z,12.30
2023-01-26T20:24:43.162Z,11.60
2023-01-26T20:27:16.112Z,11.80
2023-01-26T20:29:49.240Z,11.23
2023-01-26T20:32:21.991Z,10.05
2023-01-26T20:34:58.569Z,9.93
2023-01-26T20:37:30.512Z,9.57
2023-01-26T20:40:05.410Z,10.35
2023-01-26T20:42:37.742Z,10.20
2023-01-26T20:45:10.534Z,10.90
2023-01-26T20:47:45.068Z,10.03
2023-01-26T20:50:17.442Z,11.27
2023-01-26T20:52:50.614Z,9.27
2023-01-26T20:55:23.547Z,8.77
2023-01-26T20:57:56.040Z,9.20
2023-01-26T21:00:28.869Z,9.67
2023-01-26T21:03:00.842Z,9.25
2023-01-26T21:05:33.599Z,11.18
2023-01-26T21:08:05.787Z,9.90
2023-01-26T21:10:38.535Z,8.95
2023-01-26T21:13:10.882Z,9.33
2023-01-26T21:15:43.206Z,9.50
2023-01-26T21:18:15.948Z,9.73
2023-01-26T21:20:58.507Z,8.80
2023-01-26T21:23:33.268Z,9.60
2023-01-26T21:26:09.772Z,8.20
2023-01-26T21:28:42.644Z,8.50
2023-01-26T21:31:15.961Z,8.65
2023-01-26T21:33:50.427Z,8.20
2023-01-26T21:36:26.233Z,9.23
2023-01-26T21:39:01.108Z,8.13
2023-01-26T21:41:52.474Z,6.82
2023-01-26T21:44:33.143Z,7.63
2023-01-26T21:47:06.185Z,7.60
2023-01-26T21:49:38.550Z,7.55
2023-01-26T21:52:29.515Z,7.90
2023-01-26T21:55:01.861Z,7.25
2023-01-26T21:57:52.883Z,7.60
2023-01-26T22:00:24.968Z,6.70
2023-01-26T22:02:59.939Z,7.65
2023-01-26T22:05:32.404Z,7.93
2023-01-26T22:08:08.331Z,7.60
2023-01-26T22:10:41.111Z,7.53
2023-01-26T22:13:13.608Z,7.75
2023-01-26T22:15:45.751Z,8.18
2023-01-26T22:18:18.969Z,6.43
2023-01-26T22:20:50.951Z,7.07
2023-01-26T22:23:23.339Z,7.93
2023-01-26T22:25:55.890Z,7.90
2023-01-26T22:28:27.855Z,7.60
2023-01-26T22:31:07.229Z,7.73
2023-01-26T22:33:39.664Z,8.15
2023-01-26T22:36:13.306Z,7.28
2023-01-26T22:38:46.864Z,7.70
2023-01-26T22:41:25.844Z,7.32
2023-01-26T22:44:00.653Z,7.07
2023-01-26T22:46:32.951Z,7.05
2023-01-26T22:49:05.825Z,7.88
2023-01-26T22:51:38.167Z,13.18
2023-01-26T22:54:11.146Z,8.40
2023-01-26T22:56:43.865Z,7.57
2023-01-26T22:59:15.755Z,8.25
2023-01-26T23:01:48.605Z,8.05
2023-01-26T23:04:20.537Z,7.80
2023-01-26T23:06:53.285Z,8.32
2023-01-26T23:09:25.623Z,8.00
2023-01-26T23:12:04.744Z,7.47
2023-01-26T23:14:37.667Z,8.30
2023-01-26T23:17:10.018Z,8.90
2023-01-26T23:19:42.757Z,9.00
2023-01-26T23:22:14.671Z,9.10
2023-01-26T23:25:07.384Z,9.20
2023-01-26T23:27:39.264Z,9.43
2023-01-26T23:30:12.804Z,9.20
2023-01-26T23:32:44.880Z,9.80
2023-01-26T23:35:17.886Z,9.70
2023-01-26T23:37:49.793Z,11.30
2023-01-26T23:40:22.495Z,10.63
2023-01-26T23:43:10.462Z,10.02
2023-01-26T23:45:44.339Z,11.07
2023-01-26T23:48:20.426Z,9.93
2023-01-26T23:50:57.838Z,10.52
2023-01-26T23:53:31.170Z,10.52
2023-01-26T23:56:14.329Z,10.85
2023-01-26T23:58:47.112Z,10.45
